Tropical Cyclones
[Index]
Main Index Home Page Stock Weather Photos Extreme Storms Discussion Storm News and Storm Chasing Reports Tropical Cyclones / Hurricanes / Typhoons Weather Data and Links Wild Fires / Bushfires Weather Observation Techniques Weather Picture Catalogue Tornado Pictures and Reports Stock Video Footage and DVDs for sale
Season 1974-1975 Tropical Cyclone SELMA Track Map
Season 1974-1975 Summaries: [BoM-AU] [JTWC-AU] [JTWC-SIO] [JTWC-SPAC] [JTWC-SH]
<<- Previous TC | JTWC 1974-1975 Season | Next TC ->>

click for intensity scale information  Lat/long Grid: Show Hide

 Date Labels: Show Hide

Joint Typhoon Warning Centre Cyclone Data

Name: SELMA
Number: 875 / 7503

01 Dec 1974 00:00 UTC to 09 Dec 1974 00:00 UTC

    date/time    lat    long     hPa   cat  kts
1974-12-01 00   11.0   125.0                  25          
1974-12-01 06   11.2   125.4                  25          
1974-12-01 12   11.5   125.3                  25          
1974-12-01 18   11.7   123.7                  25          
1974-12-02 00   12.0   122.5                  25          
1974-12-02 06   12.1   125.3                  25          
1974-12-02 12   12.0   128.5                  25          
1974-12-02 18   12.1   129.7                  35          
1974-12-03 00   12.1   130.2            1     45          
1974-12-03 06   11.7   130.0                  35          
1974-12-03 12   11.3   129.8                  25          
1974-12-03 18   11.4   129.5                  20          
1974-12-04 00   11.6   129.1                  20          
1974-12-04 06   11.8   128.5                  20          
1974-12-04 12   12.1   127.9                  20          
1974-12-04 18   12.3   127.6                  20          
1974-12-05 00   12.4   127.0                  20          
1974-12-05 06   12.0   125.7                  20          
1974-12-05 12   11.4   124.3                  20          
1974-12-05 18   11.3   123.0                  20          
1974-12-06 00   11.3   121.7                  15          
1974-12-06 06   10.9   120.4                  15          
1974-12-06 12   10.7   119.1                  15          
1974-12-06 18   10.9   117.8                  15          
1974-12-07 00   11.2   116.6                  15          
1974-12-07 06   11.5   115.4                  15          
1974-12-07 12   11.8   114.3                  15          
1974-12-07 18   12.0   113.6                  15          
1974-12-08 00   12.0   113.0                  15          
1974-12-08 06   11.9   112.4                  10          
1974-12-08 12   11.7   111.9                  10          
1974-12-08 18   11.4   111.5                  10          
1974-12-09 00   11.1   111.1                  10          
Winds are 1-min average.

Tropical cyclone tracks developed by Michael Bath using data from the Joint Typhoon Warning Centre Best Tracks and Google Maps.


[Australian Severe Weather index] [Copyright Notice] [Email Contacts] [Search This Site] [Privacy Policy]
Document: tropical_cyclone_selma.htm Updated: 18 September 2016